createdAt,value
2023-01-23T00:00:19.199Z,82.65
2023-01-23T00:02:47.925Z,82.86
2023-01-23T00:05:16.517Z,82.68
2023-01-23T00:07:46.267Z,82.89
2023-01-23T00:10:15.006Z,82.63
2023-01-23T00:12:43.757Z,83.04
2023-01-23T00:15:14.018Z,83.14
2023-01-23T00:17:42.574Z,82.86
2023-01-23T00:20:13.130Z,83.06
2023-01-23T00:22:41.578Z,82.83
2023-01-23T00:25:11.457Z,82.88
2023-01-23T00:27:39.906Z,83.05
2023-01-23T00:30:10.762Z,82.75
2023-01-23T00:32:39.198Z,83.01
2023-01-23T00:35:08.470Z,83.39
2023-01-23T00:37:36.807Z,82.85
2023-01-23T00:40:06.616Z,83.72
2023-01-23T00:42:36.404Z,83.90
2023-01-23T00:45:05.590Z,84.81
2023-01-23T00:47:34.076Z,84.39
2023-01-23T00:50:02.444Z,84.20
2023-01-23T00:52:30.768Z,84.19
2023-01-23T00:54:59.122Z,83.94
2023-01-23T00:57:27.402Z,84.02
2023-01-23T00:59:57.117Z,83.86
2023-01-23T01:02:25.683Z,83.99
2023-01-23T01:04:54.682Z,83.63
2023-01-23T01:07:23.711Z,83.83
2023-01-23T01:09:52.297Z,83.66
2023-01-23T01:12:20.735Z,83.26
2023-01-23T01:14:49.248Z,83.43
2023-01-23T01:17:19.036Z,83.26
2023-01-23T01:19:49.572Z,83.42
2023-01-23T01:22:17.943Z,83.06
2023-01-23T01:24:46.553Z,82.97
2023-01-23T01:27:14.920Z,82.62
2023-01-23T01:29:43.331Z,82.54
2023-01-23T01:32:11.834Z,82.51
2023-01-23T01:34:41.587Z,82.69
2023-01-23T01:37:10.523Z,82.55
2023-01-23T01:39:39.466Z,82.60
2023-01-23T01:42:07.956Z,82.99
2023-01-23T01:44:56.006Z,82.54
2023-01-23T01:47:24.562Z,82.46
2023-01-23T01:49:58.785Z,82.56
2023-01-23T01:52:27.793Z,82.66
2023-01-23T01:54:59.979Z,82.82
2023-01-23T01:57:33.690Z,82.85
2023-01-23T02:00:09.038Z,82.93
2023-01-23T02:02:49.542Z,83.07
2023-01-23T02:05:22.788Z,82.91
2023-01-23T02:07:55.954Z,82.83
2023-01-23T02:10:25.562Z,83.13
2023-01-23T02:12:56.419Z,82.56
2023-01-23T02:15:25.014Z,82.85
2023-01-23T02:17:55.835Z,83.21
2023-01-23T02:20:29.406Z,82.97
2023-01-23T02:23:08.830Z,82.77
2023-01-23T02:25:54.535Z,82.75
2023-01-23T02:28:23.299Z,82.91
2023-01-23T02:30:52.133Z,82.89
2023-01-23T02:33:48.376Z,83.00
2023-01-23T02:36:18.358Z,82.62
2023-01-23T02:39:01.393Z,82.65
2023-01-23T02:41:35.656Z,83.04
2023-01-23T02:44:09.349Z,83.19
2023-01-23T02:46:39.206Z,83.08
2023-01-23T02:49:07.663Z,83.28
2023-01-23T02:51:36.469Z,83.21
2023-01-23T02:54:05.612Z,83.75
2023-01-23T02:56:36.047Z,83.73
2023-01-23T02:59:21.829Z,83.63
2023-01-23T03:01:51.543Z,83.79
2023-01-23T03:04:21.015Z,83.77
2023-01-23T03:06:49.366Z,83.98
2023-01-23T03:09:18.819Z,84.19
2023-01-23T03:11:48.840Z,84.00
2023-01-23T03:14:21.713Z,84.19
2023-01-23T03:16:52.743Z,84.33
2023-01-23T03:19:25.235Z,83.98
2023-01-23T03:21:54.695Z,84.23
2023-01-23T03:24:23.823Z,84.83
2023-01-23T03:26:53.734Z,85.13
2023-01-23T03:29:44.573Z,85.62
2023-01-23T03:32:16.536Z,85.87
2023-01-23T03:34:46.389Z,86.26
2023-01-23T03:37:17.533Z,86.19
2023-01-23T03:40:05.624Z,86.06
2023-01-23T03:42:37.291Z,86.60
2023-01-23T03:45:09.056Z,87.01
2023-01-23T03:47:38.074Z,88.27
2023-01-23T03:50:10.134Z,88.14
2023-01-23T03:52:40.800Z,89.21
2023-01-23T03:55:10.885Z,88.78
2023-01-23T03:57:41.583Z,88.74
2023-01-23T04:00:13.729Z,88.28
2023-01-23T04:02:42.433Z,88.44
2023-01-23T04:05:13.960Z,88.66
2023-01-23T04:07:42.503Z,88.30
2023-01-23T04:10:13.246Z,88.61
2023-01-23T04:12:45.524Z,88.59
2023-01-23T04:15:14.808Z,88.40
2023-01-23T04:17:43.394Z,88.41
2023-01-23T04:20:13.457Z,88.47
2023-01-23T04:22:44.283Z,88.16
2023-01-23T04:25:15.214Z,88.90
2023-01-23T04:27:45.167Z,88.34
2023-01-23T04:30:14.931Z,88.51
2023-01-23T04:32:46.435Z,88.42
2023-01-23T04:35:16.804Z,88.04
2023-01-23T04:37:45.784Z,88.23
2023-01-23T04:40:15.163Z,87.95
2023-01-23T04:42:55.674Z,87.58
2023-01-23T04:45:34.430Z,87.56
2023-01-23T04:48:22.694Z,87.34
2023-01-23T04:50:52.160Z,87.03
2023-01-23T04:53:23.851Z,87.38
2023-01-23T04:55:59.353Z,87.62
2023-01-23T04:58:30.724Z,87.67
2023-01-23T05:01:08.323Z,87.40
2023-01-23T05:03:37.740Z,87.23
2023-01-23T05:06:06.913Z,86.95
2023-01-23T05:08:35.436Z,87.25
2023-01-23T05:11:19.841Z,86.93
2023-01-23T05:13:50.311Z,86.90
2023-01-23T05:16:19.792Z,86.89
2023-01-23T05:19:06.863Z,86.72
2023-01-23T05:21:36.051Z,86.63
2023-01-23T05:24:04.771Z,87.07
2023-01-23T05:26:35.108Z,86.55
2023-01-23T05:29:05.203Z,86.73
2023-01-23T05:31:37.306Z,86.70
2023-01-23T05:34:41.063Z,86.33
2023-01-23T05:37:18.613Z,86.17
2023-01-23T05:39:51.333Z,86.54
2023-01-23T05:42:23.047Z,86.83
2023-01-23T05:44:52.906Z,86.96
2023-01-23T05:47:30.241Z,87.08
2023-01-23T05:50:01.189Z,87.15
2023-01-23T05:52:33.900Z,87.13
2023-01-23T05:55:02.640Z,86.93
2023-01-23T05:57:31.283Z,87.35
2023-01-23T06:00:36.365Z,87.82
2023-01-23T06:03:25.637Z,87.89
2023-01-23T06:06:08.866Z,88.83
2023-01-23T06:08:37.350Z,88.71
2023-01-23T06:11:06.228Z,88.13
2023-01-23T06:13:34.729Z,89.25
2023-01-23T06:16:05.293Z,89.64
2023-01-23T06:18:33.949Z,90.23
2023-01-23T06:21:03.167Z,90.94
2023-01-23T06:23:32.392Z,91.03
2023-01-23T06:26:02.962Z,91.57
2023-01-23T06:28:32.699Z,93.24
2023-01-23T06:31:07.268Z,93.83
2023-01-23T06:33:45.100Z,94.33
2023-01-23T06:36:14.297Z,96.12
2023-01-23T06:38:42.859Z,96.14
2023-01-23T06:41:13.906Z,96.38
2023-01-23T06:43:49.966Z,95.88
2023-01-23T06:46:24.877Z,95.72
2023-01-23T06:48:55.111Z,95.81
2023-01-23T06:51:23.862Z,95.53
2023-01-23T06:53:52.799Z,94.79
2023-01-23T06:56:23.899Z,94.09
2023-01-23T06:58:54.134Z,93.75
2023-01-23T07:01:29.683Z,92.97
2023-01-23T07:04:17.110Z,92.79
2023-01-23T07:06:46.536Z,92.43
2023-01-23T07:09:17.567Z,92.41
2023-01-23T07:11:52.688Z,91.97
2023-01-23T07:14:23.900Z,91.46
2023-01-23T07:16:55.722Z,91.09
2023-01-23T07:19:24.175Z,90.69
2023-01-23T07:21:52.811Z,90.29
2023-01-23T07:24:21.418Z,90.57
2023-01-23T07:26:49.844Z,90.44
2023-01-23T07:29:20.357Z,90.10
2023-01-23T07:31:48.651Z,89.69
2023-01-23T07:34:18.628Z,89.42
2023-01-23T07:36:47.123Z,89.44
2023-01-23T07:39:16.157Z,89.16
2023-01-23T07:41:46.394Z,89.09
2023-01-23T07:44:18.827Z,88.90
2023-01-23T07:46:48.274Z,88.68
2023-01-23T07:49:19.330Z,89.98
2023-01-23T07:51:47.799Z,90.45
2023-01-23T07:54:16.400Z,90.48
2023-01-23T07:56:44.940Z,90.28
2023-01-23T07:59:13.980Z,89.44
2023-01-23T08:01:42.676Z,90.24
2023-01-23T08:04:11.193Z,90.08
2023-01-23T08:06:41.083Z,89.75
2023-01-23T08:09:09.881Z,89.60
2023-01-23T08:11:38.299Z,89.22
2023-01-23T08:14:07.178Z,89.29
2023-01-23T08:16:36.032Z,89.07
2023-01-23T08:19:09.240Z,89.87
2023-01-23T08:21:37.710Z,89.65
2023-01-23T08:24:08.738Z,89.70
2023-01-23T08:26:37.313Z,89.24
2023-01-23T08:29:06.190Z,89.23
2023-01-23T08:31:36.058Z,89.49
2023-01-23T08:34:05.277Z,89.23
2023-01-23T08:36:34.005Z,89.08
2023-01-23T08:39:02.557Z,88.98
2023-01-23T08:41:32.429Z,88.37
2023-01-23T08:44:01.863Z,88.23
2023-01-23T08:46:30.699Z,88.25
2023-01-23T08:49:05.413Z,88.24
2023-01-23T08:51:34.425Z,88.23
2023-01-23T08:54:02.825Z,87.82
2023-01-23T08:56:32.650Z,87.83
2023-01-23T08:59:01.210Z,87.89
2023-01-23T09:01:29.733Z,87.48
2023-01-23T09:03:58.847Z,87.56
2023-01-23T09:06:27.405Z,87.54
2023-01-23T09:08:55.925Z,87.58
2023-01-23T09:11:24.391Z,87.22
2023-01-23T09:13:54.329Z,87.38
2023-01-23T09:16:22.833Z,87.29
2023-01-23T09:18:51.321Z,87.27
2023-01-23T09:21:19.841Z,87.17
2023-01-23T09:23:48.414Z,87.19
2023-01-23T09:26:19.556Z,87.06
2023-01-23T09:28:48.322Z,87.03
2023-01-23T09:31:19.343Z,87.11
2023-01-23T09:33:49.847Z,86.75
2023-01-23T09:36:33.654Z,86.55
2023-01-23T09:39:09.401Z,86.45
2023-01-23T09:41:39.795Z,86.53
2023-01-23T09:44:16.934Z,86.11
2023-01-23T09:46:50.907Z,85.70
2023-01-23T09:49:27.021Z,85.66
2023-01-23T09:52:01.267Z,85.59
2023-01-23T09:54:46.639Z,85.36
2023-01-23T09:57:18.577Z,85.53
2023-01-23T10:00:00.794Z,85.30
2023-01-23T10:02:31.026Z,85.02
2023-01-23T10:05:02.987Z,85.15
2023-01-23T10:07:55.769Z,85.22
2023-01-23T10:10:49.706Z,84.87
2023-01-23T10:13:36.885Z,85.81
2023-01-23T10:16:50.499Z,85.76
2023-01-23T10:19:45.371Z,85.93
2023-01-23T10:22:34.526Z,85.75
2023-01-23T10:25:11.701Z,86.84
2023-01-23T10:27:44.101Z,87.86
2023-01-23T10:30:28.308Z,88.93
2023-01-23T10:33:02.560Z,91.03
2023-01-23T10:35:42.027Z,90.75
2023-01-23T10:38:29.147Z,91.05
2023-01-23T10:41:17.808Z,90.90
2023-01-23T10:43:49.048Z,90.94
2023-01-23T10:46:20.247Z,90.35
2023-01-23T10:48:51.027Z,89.66
2023-01-23T10:51:32.614Z,89.31
2023-01-23T10:54:31.380Z,87.87
2023-01-23T10:57:02.886Z,87.61
2023-01-23T10:59:36.509Z,86.53
2023-01-23T11:02:22.103Z,86.77
2023-01-23T11:04:52.881Z,86.57
2023-01-23T11:07:23.708Z,85.57
2023-01-23T11:09:56.299Z,85.32
2023-01-23T11:12:26.921Z,85.57
2023-01-23T11:15:13.932Z,86.02
2023-01-23T11:17:44.615Z,85.60
2023-01-23T11:20:25.676Z,84.68
2023-01-23T11:23:08.517Z,84.28
2023-01-23T11:25:39.901Z,83.55
2023-01-23T11:28:24.838Z,83.43
2023-01-23T11:31:12.244Z,83.03
2023-01-23T11:33:47.837Z,82.21
2023-01-23T11:36:39.666Z,81.91
2023-01-23T11:39:20.338Z,82.08
2023-01-23T11:41:49.032Z,81.74
2023-01-23T11:44:21.129Z,81.68
2023-01-23T11:47:29.612Z,80.68
2023-01-23T11:50:17.152Z,80.73
2023-01-23T11:52:59.254Z,79.90
2023-01-23T11:55:46.892Z,80.23
2023-01-23T11:58:50.825Z,79.75
2023-01-23T12:01:25.184Z,78.88
2023-01-23T12:04:22.944Z,78.98
2023-01-23T12:07:17.695Z,78.78
2023-01-23T12:10:02.070Z,77.65
2023-01-23T12:13:00.140Z,77.62
2023-01-23T12:15:35.811Z,77.46
2023-01-23T12:18:17.269Z,77.42
2023-01-23T12:20:55.452Z,76.99
2023-01-23T12:23:40.164Z,76.50
2023-01-23T12:26:15.751Z,75.36
2023-01-23T12:29:15.678Z,75.25
2023-01-23T12:32:01.788Z,75.83
2023-01-23T12:34:52.200Z,75.58
2023-01-23T12:37:43.426Z,74.45
2023-01-23T12:40:17.095Z,73.66
2023-01-23T12:42:53.986Z,75.08
2023-01-23T12:45:26.261Z,75.82
2023-01-23T12:48:04.955Z,76.29
2023-01-23T12:50:43.669Z,77.73
2023-01-23T12:53:15.856Z,76.60
2023-01-23T12:55:57.222Z,76.64
2023-01-23T12:58:29.695Z,78.25
2023-01-23T13:01:14.262Z,79.73
2023-01-23T13:04:05.390Z,79.38
2023-01-23T13:07:31.516Z,78.50
2023-01-23T13:10:59.289Z,80.18
2023-01-23T13:13:28.878Z,81.86
2023-01-23T13:16:13.396Z,80.01
2023-01-23T13:19:15.103Z,78.48
2023-01-23T13:22:06.671Z,78.76
2023-01-23T13:25:03.024Z,78.41
2023-01-23T13:27:51.331Z,76.95
2023-01-23T13:31:04.798Z,78.34
2023-01-23T13:33:58.818Z,76.46
2023-01-23T13:36:35.931Z,77.61
2023-01-23T13:39:28.004Z,77.70
2023-01-23T13:42:45.782Z,76.71
2023-01-23T13:45:29.800Z,78.47
2023-01-23T14:21:55.100Z,76.44
2023-01-23T14:24:26.426Z,76.20
2023-01-23T14:27:07.480Z,77.85
2023-01-23T14:29:36.259Z,78.87
2023-01-23T14:32:05.136Z,78.61
2023-01-23T14:34:40.968Z,77.13
2023-01-23T14:37:13.715Z,76.71
2023-01-23T14:39:53.096Z,75.90
2023-01-23T14:42:29.482Z,76.67
2023-01-23T14:45:01.925Z,77.11
2023-01-23T14:47:35.298Z,76.53
2023-01-23T14:50:05.324Z,75.62
2023-01-23T14:52:35.166Z,74.48
2023-01-23T14:55:08.028Z,73.89
2023-01-23T14:57:37.834Z,72.74
2023-01-23T15:00:08.889Z,72.10
2023-01-23T15:02:37.812Z,71.22
2023-01-23T15:05:16.734Z,71.23
2023-01-23T15:07:49.384Z,72.83
2023-01-23T15:10:20.833Z,74.63
2023-01-23T15:12:56.068Z,74.26
2023-01-23T15:15:26.610Z,74.24
2023-01-23T15:17:55.894Z,75.25
2023-01-23T15:20:38.404Z,75.07
2023-01-23T15:23:31.544Z,77.38
2023-01-23T15:26:34.523Z,77.74
2023-01-23T15:29:06.046Z,77.93
2023-01-23T15:31:36.813Z,78.92
2023-01-23T15:34:28.039Z,78.98
2023-01-23T15:37:01.228Z,79.23
2023-01-23T15:39:34.236Z,80.12
2023-01-23T15:42:05.789Z,80.11
2023-01-23T15:44:34.558Z,79.99
2023-01-23T15:47:04.356Z,79.96
2023-01-23T15:49:36.110Z,79.98
2023-01-23T15:52:21.436Z,80.10
2023-01-23T15:54:53.477Z,79.56
2023-01-23T15:57:21.937Z,78.79
2023-01-23T15:59:50.381Z,78.26
2023-01-23T16:02:30.639Z,78.02
2023-01-23T16:05:01.163Z,77.92
2023-01-23T16:07:35.010Z,77.90
2023-01-23T16:10:18.025Z,77.47
2023-01-23T16:12:50.654Z,78.21
2023-01-23T16:15:21.690Z,77.98
2023-01-23T16:17:50.982Z,77.93
2023-01-23T16:20:23.374Z,77.25
2023-01-23T16:22:54.575Z,76.65
2023-01-23T16:25:43.148Z,75.84
2023-01-23T16:28:14.528Z,75.03
2023-01-23T16:30:43.475Z,74.79
2023-01-23T16:33:12.140Z,75.21
2023-01-23T16:35:41.281Z,74.69
2023-01-23T16:38:21.458Z,74.19
2023-01-23T16:40:53.343Z,73.37
2023-01-23T16:43:22.547Z,73.48
2023-01-23T16:45:53.692Z,73.23
2023-01-23T16:48:28.283Z,73.13
2023-01-23T16:51:01.986Z,72.65
2023-01-23T16:53:32.874Z,72.75
2023-01-23T16:56:04.636Z,72.42
2023-01-23T16:58:40.144Z,72.23
2023-01-23T17:01:15.106Z,72.01
2023-01-23T17:03:43.848Z,72.15
2023-01-23T17:06:15.595Z,71.82
2023-01-23T17:08:44.569Z,72.23
2023-01-23T17:11:22.843Z,71.79
2023-01-23T17:13:58.680Z,71.83
2023-01-23T17:16:28.264Z,72.30
2023-01-23T17:19:01.156Z,71.98
2023-01-23T17:21:34.035Z,72.21
2023-01-23T17:24:02.831Z,71.91
2023-01-23T17:26:32.739Z,71.91
2023-01-23T17:29:01.179Z,71.58
2023-01-23T17:31:32.694Z,71.52
2023-01-23T17:34:03.104Z,71.56
2023-01-23T17:36:31.602Z,71.51
2023-01-23T17:39:01.173Z,71.30
2023-01-23T17:41:31.571Z,72.06
2023-01-23T17:44:02.105Z,71.79
2023-01-23T17:46:34.206Z,72.27
2023-01-23T17:49:02.758Z,72.48
2023-01-23T17:51:32.775Z,72.19
2023-01-23T17:54:01.219Z,72.48
2023-01-23T17:56:29.623Z,72.16
2023-01-23T17:58:58.096Z,72.51
2023-01-23T18:01:28.331Z,72.36
2023-01-23T18:03:56.754Z,72.67
2023-01-23T18:06:25.144Z,73.08
2023-01-23T18:08:53.819Z,73.03
2023-01-23T18:11:24.772Z,72.73
2023-01-23T18:14:26.205Z,72.83
2023-01-23T18:16:57.000Z,72.61
2023-01-23T18:19:26.818Z,72.67
2023-01-23T18:21:58.184Z,72.29
2023-01-23T18:24:30.586Z,71.91
2023-01-23T18:27:01.744Z,72.62
2023-01-23T18:29:44.484Z,72.39
2023-01-23T18:32:50.020Z,71.91
2023-01-23T18:35:30.517Z,71.77
2023-01-23T18:38:09.161Z,71.47
2023-01-23T18:40:45.314Z,70.96
2023-01-23T18:43:32.719Z,72.05
2023-01-23T18:46:02.215Z,71.90
2023-01-23T18:48:32.847Z,72.93
2023-01-23T18:51:09.579Z,72.60
2023-01-23T18:53:48.017Z,72.83
2023-01-23T18:56:29.865Z,73.01
2023-01-23T18:59:12.993Z,73.19
2023-01-23T19:01:53.483Z,73.33
2023-01-23T19:04:34.448Z,74.69
2023-01-23T19:07:04.210Z,75.10
2023-01-23T19:09:36.215Z,75.23
2023-01-23T19:12:25.782Z,74.96
2023-01-23T19:15:10.113Z,75.28
2023-01-23T19:17:47.452Z,75.06
2023-01-23T19:20:30.222Z,75.06
2023-01-23T19:23:22.612Z,74.79
2023-01-23T19:25:51.435Z,74.61
2023-01-23T19:28:24.176Z,74.82
2023-01-23T19:30:53.465Z,74.62
2023-01-23T19:33:23.422Z,74.48
2023-01-23T19:35:56.872Z,74.21
2023-01-23T19:38:26.663Z,74.25
2023-01-23T19:40:56.965Z,74.11
2023-01-23T19:43:27.302Z,73.75
2023-01-23T19:45:56.540Z,73.78
2023-01-23T19:48:25.095Z,73.17
2023-01-23T19:50:54.939Z,73.10
2023-01-23T19:53:24.275Z,73.62
2023-01-23T19:55:52.882Z,74.87
2023-01-23T19:58:21.474Z,74.93
2023-01-23T20:00:50.294Z,74.56
2023-01-23T20:03:18.674Z,74.32
2023-01-23T20:05:47.095Z,74.19
2023-01-23T20:08:17.329Z,74.11
2023-01-23T20:10:45.793Z,74.58
2023-01-23T20:13:15.158Z,74.73
2023-01-23T20:15:44.040Z,74.70
2023-01-23T20:18:12.923Z,74.87
2023-01-23T20:20:41.360Z,76.10
2023-01-23T20:23:10.125Z,77.46
2023-01-23T20:25:40.014Z,76.96
2023-01-23T20:28:08.550Z,76.64
2023-01-23T20:30:37.118Z,76.55
2023-01-23T20:33:08.343Z,76.48
2023-01-23T20:35:39.784Z,76.78
2023-01-23T20:38:08.257Z,77.50
2023-01-23T20:40:36.692Z,77.88
2023-01-23T20:43:06.617Z,77.37
2023-01-23T20:45:35.076Z,77.17
2023-01-23T20:48:03.490Z,76.75
2023-01-23T20:50:32.240Z,77.90
2023-01-23T20:53:19.273Z,78.84
2023-01-23T20:55:53.970Z,79.11
2023-01-23T20:58:41.543Z,79.27
2023-01-23T21:01:10.562Z,78.73
2023-01-23T21:03:40.322Z,78.29
2023-01-23T21:06:09.869Z,77.89
2023-01-23T21:08:38.777Z,77.32
2023-01-23T21:11:08.825Z,77.17
2023-01-23T21:13:38.937Z,77.83
2023-01-23T21:16:12.057Z,78.69
2023-01-23T21:18:44.694Z,78.14
2023-01-23T21:21:16.178Z,77.72
2023-01-23T21:23:46.920Z,77.79
2023-01-23T21:26:16.015Z,78.62
2023-01-23T21:28:47.983Z,78.58
2023-01-23T21:31:23.178Z,77.82
2023-01-23T21:33:52.342Z,79.33
2023-01-23T21:36:24.476Z,79.86
2023-01-23T21:38:54.122Z,79.90
2023-01-23T21:41:23.165Z,79.27
2023-01-23T21:43:53.001Z,79.86
2023-01-23T21:46:24.929Z,79.49
2023-01-23T21:48:53.379Z,78.97
2023-01-23T21:51:27.797Z,78.14
2023-01-23T21:53:56.495Z,77.83
2023-01-23T21:56:25.840Z,77.96
2023-01-23T21:58:56.084Z,78.29
2023-01-23T22:01:42.599Z,78.43
2023-01-23T22:04:13.556Z,78.66
2023-01-23T22:06:44.294Z,78.56
2023-01-23T22:09:17.385Z,78.71
2023-01-23T22:11:46.319Z,78.85
2023-01-23T22:14:16.462Z,78.77
2023-01-23T22:16:50.331Z,79.41
2023-01-23T22:19:24.516Z,79.59
2023-01-23T22:21:54.176Z,80.03
2023-01-23T22:24:22.720Z,81.80
2023-01-23T22:26:51.460Z,81.06
2023-01-23T22:29:23.168Z,80.52
2023-01-23T22:31:52.382Z,79.78
2023-01-23T22:34:21.124Z,79.39
2023-01-23T22:36:49.603Z,79.02
2023-01-23T22:39:19.697Z,78.53
2023-01-23T22:41:50.246Z,79.13
2023-01-23T22:44:20.414Z,79.10
2023-01-23T22:46:51.772Z,78.88
2023-01-23T22:49:22.319Z,78.60
2023-01-23T22:51:51.504Z,78.67
2023-01-23T22:54:19.941Z,78.79
2023-01-23T22:56:48.417Z,78.31
2023-01-23T22:59:16.962Z,78.73
2023-01-23T23:01:46.749Z,79.47
2023-01-23T23:04:15.192Z,79.26
2023-01-23T23:06:43.787Z,78.91
2023-01-23T23:09:12.272Z,78.56
2023-01-23T23:11:40.867Z,79.84
2023-01-23T23:14:12.120Z,80.97
2023-01-23T23:16:41.012Z,80.24
2023-01-23T23:19:13.441Z,80.28
2023-01-23T23:21:42.148Z,80.13
2023-01-23T23:24:14.193Z,79.63
2023-01-23T23:26:42.701Z,79.81
2023-01-23T23:29:11.090Z,80.63
2023-01-23T23:31:39.599Z,82.27
2023-01-23T23:34:12.338Z,81.70
2023-01-23T23:36:41.089Z,81.44
2023-01-23T23:39:09.554Z,80.89
2023-01-23T23:41:37.931Z,80.16
2023-01-23T23:44:06.769Z,80.39
2023-01-23T23:46:35.224Z,80.29
2023-01-23T23:49:03.846Z,79.85
2023-01-23T23:51:33.643Z,79.54
2023-01-23T23:54:02.042Z,80.48
2023-01-23T23:56:32.141Z,81.15
2023-01-23T23:59:00.737Z,81.87
